Time;durP1;ratioP1;P1;durP2;ratioP2;P2;SDS_P1;SDS_P2;PMS_P1;PMS_P2;Temp;Humidity;BMP_temperature;BMP_pressure;BME280_temperature;BME280_humidity;BME280_pressure;Samples;Min_cycle;Max_cycle;Signal;HPM_P1;HPM_P2
2021/10/21 00:02:15;;;;;;;5.55;2.80;;;;;;;15.39;78.37;98793.81;4902816;28;20096;-68
2021/10/21 00:04:40;;;;;;;4.65;2.30;;;;;;;15.36;78.06;98771.19;4914263;28;20094;-69
2021/10/21 00:07:06;;;;;;;7.15;2.25;;;;;;;15.33;77.81;98738.94;4901009;28;20588;-69
2021/10/21 00:09:32;;;;;;;5.45;1.98;;;;;;;15.35;77.47;98714.34;4908426;28;20145;-68
2021/10/21 00:11:58;;;;;;;5.03;1.90;;;;;;;15.21;77.63;98702.66;4904715;28;20596;-68
2021/10/21 00:14:23;;;;;;;5.57;1.88;;;;;;;15.12;77.67;98680.28;4909128;28;20583;-68
2021/10/21 00:16:50;;;;;;;5.35;1.90;;;;;;;15.15;77.46;98698.53;4898647;28;20214;-68
2021/10/21 00:19:15;;;;;;;9.23;1.77;;;;;;;15.02;77.66;98699.91;4910488;28;20074;-68
2021/10/21 00:21:41;;;;;;;8.57;1.70;;;;;;;14.96;77.58;98727.25;4895460;28;20138;-68
2021/10/21 00:24:06;;;;;;;3.40;1.23;;;;;;;14.81;77.89;98711.25;4917992;28;20045;-68
2021/10/21 00:26:32;;;;;;;2.28;1.00;;;;;;;14.51;78.35;98711.50;4912407;28;20408;-69
2021/10/21 00:28:57;;;;;;;3.25;1.10;;;;;;;14.46;78.29;98695.06;4907138;28;20505;-68
2021/10/21 00:31:22;;;;;;;3.78;0.98;;;;;;;14.37;78.27;98703.28;4910004;28;20059;-69
2021/10/21 00:33:48;;;;;;;5.80;1.40;;;;;;;14.36;78.15;98724.25;4909351;28;20109;-69
2021/10/21 00:36:14;;;;;;;4.07;1.08;;;;;;;14.37;77.57;98734.72;4912706;28;20077;-69
2021/10/21 00:38:39;;;;;;;4.13;0.85;;;;;;;14.22;76.98;98732.59;4915061;28;20055;-68
2021/10/21 00:41:05;;;;;;;3.85;0.98;;;;;;;14.13;76.94;98738.19;4884636;28;20504;-69
2021/10/21 00:43:38;;;;;;;1.80;0.82;;;;;;;14.22;76.52;98733.47;4913874;28;20070;-69
2021/10/21 00:46:09;;;;;;;3.65;0.75;;;;;;;14.17;76.71;98732.78;4903756;28;20051;-69
2021/10/21 00:48:35;;;;;;;6.90;1.23;;;;;;;14.14;76.85;98726.81;4915629;28;20046;-69
2021/10/21 00:51:02;;;;;;;8.57;1.17;;;;;;;14.03;76.70;98706.19;4897086;28;20512;-69
2021/10/21 00:53:29;;;;;;;4.97;1.10;;;;;;;14.05;76.97;98693.91;4910582;28;20047;-69
2021/10/21 00:55:54;;;;;;;7.18;1.10;;;;;;;13.86;76.98;98695.44;4917522;28;20134;-68
2021/10/21 00:58:19;;;;;;;7.00;1.10;;;;;;;13.82;77.00;98686.84;4912382;28;20094;-68
2021/10/21 01:00:45;;;;;;;7.18;1.10;;;;;;;13.89;76.34;98690.13;4916346;28;20074;-68
2021/10/21 01:03:11;;;;;;;7.05;1.00;;;;;;;13.87;76.03;98693.69;4903660;28;20030;-68
2021/10/21 01:05:36;;;;;;;6.57;0.93;;;;;;;13.75;76.03;98708.06;4910902;28;20048;-69
2021/10/21 01:08:02;;;;;;;9.05;1.33;;;;;;;13.61;75.88;98711.13;4916798;28;20517;-68
2021/10/21 01:10:27;;;;;;;12.90;1.20;;;;;;;13.57;75.92;98716.53;4906827;28;20138;-69
2021/10/21 01:12:52;;;;;;;8.68;1.10;;;;;;;13.42;75.36;98717.88;4913702;28;20117;-68
2021/10/21 01:15:25;;;;;;;8.32;1.25;;;;;;;13.37;74.74;98707.56;4906758;28;20242;-68
2021/10/21 01:17:51;;;;;;;8.88;1.23;;;;;;;13.36;74.45;98718.94;4910951;28;20070;-68
2021/10/21 01:20:17;;;;;;;9.10;1.38;;;;;;;13.21;74.29;98706.34;4916707;28;20069;-68
2021/10/21 01:22:43;;;;;;;11.23;1.30;;;;;;;13.16;74.46;98705.66;4911445;28;20577;-67
2021/10/21 01:25:09;;;;;;;13.98;1.60;;;;;;;13.21;74.05;98698.50;4903825;28;20603;-68
2021/10/21 01:27:34;;;;;;;11.32;1.60;;;;;;;13.18;74.11;98697.72;4915553;28;20089;-68
2021/10/21 01:29:59;;;;;;;10.20;1.40;;;;;;;13.23;74.08;98695.84;4914083;28;20066;-68
2021/10/21 01:32:26;;;;;;;9.15;1.52;;;;;;;13.20;74.21;98711.63;4916043;28;20070;-70
2021/10/21 01:34:52;;;;;;;9.05;1.15;;;;;;;13.23;74.13;98701.94;4910275;28;20165;-68
2021/10/21 01:37:17;;;;;;;15.32;1.63;;;;;;;13.31;73.71;98702.53;4903947;28;21331;-69
2021/10/21 01:39:44;;;;;;;14.50;1.55;;;;;;;13.25;73.64;98710.56;4914328;28;20039;-68
2021/10/21 01:42:09;;;;;;;5.60;1.08;;;;;;;13.28;73.35;98678.22;4919878;28;20078;-68
2021/10/21 01:44:34;;;;;;;8.15;1.33;;;;;;;13.25;73.02;98705.34;4913999;28;20336;-68
2021/10/21 01:47:00;;;;;;;6.32;1.27;;;;;;;13.22;73.05;98689.75;4910123;28;20051;-68
2021/10/21 01:49:25;;;;;;;10.20;1.08;;;;;;;13.27;73.47;98705.28;4914994;28;20055;-69
2021/10/21 01:51:51;;;;;;;6.88;1.20;;;;;;;13.16;74.16;98695.19;4908925;28;20039;-70
2021/10/21 01:54:17;;;;;;;5.20;0.90;;;;;;;13.20;73.58;98688.06;4914055;28;20070;-69
2021/10/21 01:56:42;;;;;;;6.22;1.13;;;;;;;13.19;73.71;98702.06;4913171;28;20051;-69
2021/10/21 01:59:08;;;;;;;4.70;1.02;;;;;;;13.06;74.11;98695.47;4907564;28;20550;-68
2021/10/21 02:01:33;;;;;;;6.00;1.13;;;;;;;13.04;74.90;98692.06;4911903;28;20067;-68
2021/10/21 02:03:59;;;;;;;5.68;0.98;;;;;;;13.07;74.75;98676.25;4912009;28;20046;-68
2021/10/21 02:06:24;;;;;;;5.60;0.95;;;;;;;13.02;74.64;98679.03;4903239;28;20275;-68
2021/10/21 02:08:51;;;;;;;4.78;0.90;;;;;;;13.05;74.79;98680.69;4908291;28;20035;-68
2021/10/21 02:11:16;;;;;;;5.57;1.05;;;;;;;12.92;75.48;98688.06;4901606;28;20053;-67
2021/10/21 02:13:42;;;;;;;4.68;1.50;;;;;;;12.94;75.26;98673.16;4911349;28;20444;-68
2021/10/21 02:16:07;;;;;;;6.65;1.20;;;;;;;12.92;75.33;98675.84;4921137;28;20034;-68
2021/10/21 02:18:33;;;;;;;9.90;1.08;;;;;;;12.86;75.83;98665.56;4913435;28;20044;-69
2021/10/21 02:20:58;;;;;;;6.53;1.13;;;;;;;12.89;75.75;98651.53;4906236;28;20363;-70
2021/10/21 02:23:23;;;;;;;6.47;1.00;;;;;;;12.82;75.88;98652.63;4896209;28;20165;-69
2021/10/21 02:25:49;;;;;;;7.03;1.00;;;;;;;12.96;75.66;98648.69;4915053;28;20047;-67
2021/10/21 02:28:14;;;;;;;4.78;0.90;;;;;;;12.95;75.85;98653.97;4918223;28;20071;-68
2021/10/21 02:30:40;;;;;;;5.30;0.93;;;;;;;12.94;76.14;98641.78;4911942;28;20097;-68
2021/10/21 02:33:05;;;;;;;6.72;1.13;;;;;;;13.00;76.33;98638.97;4904553;28;20027;-68
2021/10/21 02:35:30;;;;;;;5.90;1.15;;;;;;;13.01;75.65;98643.28;4909643;28;20078;-69
2021/10/21 02:37:56;;;;;;;5.43;1.20;;;;;;;12.90;75.95;98637.56;4913894;28;20054;-68
2021/10/21 02:40:21;;;;;;;6.72;1.08;;;;;;;12.99;76.04;98640.72;4911896;28;20129;-68
2021/10/21 02:42:46;;;;;;;4.40;0.90;;;;;;;13.07;75.73;98637.88;4893962;28;20459;-68
2021/10/21 02:45:12;;;;;;;7.45;1.10;;;;;;;13.08;75.72;98628.25;4912175;28;20086;-68
2021/10/21 02:47:38;;;;;;;4.72;0.98;;;;;;;13.08;75.87;98629.13;4914987;28;20132;-68
2021/10/21 02:50:04;;;;;;;4.10;0.98;;;;;;;13.07;75.99;98630.03;4915705;28;20062;-68
2021/10/21 02:52:29;;;;;;;5.80;1.30;;;;;;;13.13;75.70;98629.84;4916751;28;20047;-68
2021/10/21 02:54:57;;;;;;;5.13;1.00;;;;;;;13.17;75.88;98625.41;4897720;28;20814;-67
2021/10/21 02:57:22;;;;;;;7.35;1.17;;;;;;;13.18;75.88;98632.31;4912197;28;20091;-69
2021/10/21 02:59:48;;;;;;;7.32;1.20;;;;;;;13.07;76.22;98626.56;4913567;28;20122;-68
2021/10/21 03:02:13;;;;;;;5.30;0.98;;;;;;;13.13;75.98;98610.69;4908888;28;20039;-69
2021/10/21 03:04:38;;;;;;;4.82;1.20;;;;;;;13.16;75.84;98623.69;4909622;28;20058;-69
2021/10/21 03:07:04;;;;;;;7.82;1.10;;;;;;;13.22;75.83;98616.50;4889032;28;20504;-69
2021/10/21 03:09:29;;;;;;;6.20;1.08;;;;;;;13.24;75.88;98622.50;4909495;28;20125;-69
2021/10/21 03:11:54;;;;;;;5.32;1.10;;;;;;;13.21;75.93;98625.25;4915093;28;20109;-69
2021/10/21 03:14:20;;;;;;;6.63;1.30;;;;;;;13.17;76.08;98614.94;4921791;28;20054;-69
2021/10/21 03:16:45;;;;;;;5.75;1.20;;;;;;;13.12;76.23;98611.56;4910778;28;20533;-68
2021/10/21 03:19:11;;;;;;;6.60;1.58;;;;;;;13.24;76.19;98613.78;4910970;28;20540;-68
2021/10/21 03:21:36;;;;;;;6.10;1.10;;;;;;;13.22;75.99;98613.88;4910529;28;20343;-68
2021/10/21 03:24:02;;;;;;;5.32;1.35;;;;;;;13.28;75.99;98621.53;4907710;28;21303;-68
2021/10/21 03:26:27;;;;;;;6.50;1.30;;;;;;;13.29;75.86;98625.00;4916648;28;20051;-68
2021/10/21 03:28:53;;;;;;;6.25;1.20;;;;;;;13.32;76.09;98617.88;4908853;28;20138;-69
2021/10/21 03:31:19;;;;;;;6.43;1.50;;;;;;;13.36;75.72;98626.47;4917493;28;20079;-69
2021/10/21 03:33:44;;;;;;;6.82;1.33;;;;;;;13.44;75.58;98634.94;4909234;28;20051;-69
2021/10/21 03:36:10;;;;;;;7.60;1.13;;;;;;;13.40;75.65;98622.88;4910819;28;20116;-69
2021/10/21 03:38:36;;;;;;;5.50;1.30;;;;;;;13.47;75.04;98640.09;4914987;28;20055;-69
2021/10/21 03:41:02;;;;;;;5.03;1.20;;;;;;;13.45;75.33;98620.09;4906213;28;20457;-69
2021/10/21 03:43:27;;;;;;;8.88;1.55;;;;;;;13.37;75.77;98631.66;4905835;28;20043;-69
2021/10/21 03:45:53;;;;;;;4.15;1.10;;;;;;;13.44;75.75;98641.94;4906411;28;20062;-69
2021/10/21 03:48:19;;;;;;;7.97;1.48;;;;;;;13.48;75.50;98641.75;4921048;28;20035;-69
2021/10/21 03:50:44;;;;;;;6.40;1.10;;;;;;;13.37;75.85;98630.81;4911668;28;20093;-69
2021/10/21 03:53:11;;;;;;;5.03;1.48;;;;;;;13.43;76.07;98645.44;4901975;28;20459;-69
2021/10/21 03:55:41;;;;;;;3.58;1.30;;;;;;;13.45;75.88;98652.34;4909755;28;20411;-69
2021/10/21 03:58:06;;;;;;;7.60;1.52;;;;;;;13.46;76.29;98666.28;4911889;28;20650;-69
2021/10/21 04:00:32;;;;;;;4.90;1.20;;;;;;;13.45;76.09;98688.13;4912387;28;20339;-69
2021/10/21 04:02:57;;;;;;;5.55;1.30;;;;;;;13.45;76.04;98677.66;4907878;28;20456;-68
2021/10/21 04:05:23;;;;;;;6.13;1.45;;;;;;;13.45;76.25;98716.94;4888930;28;20509;-69
2021/10/21 04:07:49;;;;;;;6.93;1.40;;;;;;;13.43;76.15;98748.38;4913616;28;20102;-69
2021/10/21 04:10:15;;;;;;;8.13;1.50;;;;;;;13.21;76.30;98760.44;4914980;28;20433;-69
2021/10/21 04:12:40;;;;;;;7.85;1.38;;;;;;;13.10;74.80;98737.19;4918151;28;20468;-68
2021/10/21 04:15:06;;;;;;;9.38;0.98;;;;;;;12.96;75.19;98753.31;4900206;28;20069;-68
2021/10/21 04:17:32;;;;;;;7.47;1.00;;;;;;;12.81;75.81;98756.34;4901852;28;20577;-68
2021/10/21 04:19:57;;;;;;;9.65;1.00;;;;;;;12.69;75.68;98768.94;4912034;28;20075;-68
2021/10/21 04:22:22;;;;;;;9.27;1.20;;;;;;;12.62;75.63;98793.56;4918234;28;20051;-68
2021/10/21 04:24:48;;;;;;;5.95;0.95;;;;;;;12.57;75.01;98791.91;4912501;28;20402;-68
2021/10/21 04:27:13;;;;;;;7.78;0.77;;;;;;;12.66;74.21;98834.38;4888302;28;20035;-67
2021/10/21 04:29:39;;;;;;;7.53;0.93;;;;;;;12.63;74.16;98855.38;4914043;28;20050;-68
2021/10/21 04:32:04;;;;;;;7.78;0.90;;;;;;;12.64;73.99;98878.84;4914222;28;20654;-67
2021/10/21 04:34:30;;;;;;;5.60;0.60;;;;;;;12.55;74.38;98900.88;4925050;28;20042;-69
2021/10/21 04:36:55;;;;;;;7.53;0.80;;;;;;;12.74;74.57;98934.41;4910016;28;20046;-70
2021/10/21 04:39:20;;;;;;;8.80;0.80;;;;;;;12.57;75.00;98951.34;4913119;28;20144;-68
2021/10/21 04:41:46;;;;;;;5.63;0.65;;;;;;;12.58;74.83;98981.84;4917994;28;20146;-69
2021/10/21 04:44:11;;;;;;;9.13;1.00;;;;;;;12.32;74.70;98986.00;4911606;28;20043;-69
2021/10/21 04:46:36;;;;;;;14.15;1.20;;;;;;;12.43;74.90;99005.75;4909302;28;20947;-69
2021/10/21 04:49:02;;;;;;;11.18;1.30;;;;;;;12.38;75.32;99025.88;4910969;28;20113;-69
2021/10/21 04:51:28;;;;;;;13.80;1.52;;;;;;;12.24;75.83;99053.22;4916232;28;20039;-69
2021/10/21 04:53:53;;;;;;;11.48;1.30;;;;;;;12.41;75.96;99077.22;4917379;28;20473;-69
2021/10/21 04:56:18;;;;;;;12.80;1.65;;;;;;;12.31;76.13;99101.84;4915200;28;20506;-68
2021/10/21 04:58:44;;;;;;;17.13;1.92;;;;;;;12.37;76.21;99122.63;4919723;28;20205;-69
2021/10/21 05:01:09;;;;;;;16.25;1.85;;;;;;;12.39;75.85;99137.34;4909198;28;20474;-68
2021/10/21 05:03:34;;;;;;;14.52;1.52;;;;;;;12.44;74.44;99160.81;4917417;28;20432;-68
2021/10/21 05:06:00;;;;;;;13.93;1.70;;;;;;;12.46;74.38;99177.28;4914271;28;20459;-69
2021/10/21 05:08:25;;;;;;;11.20;1.73;;;;;;;12.41;73.82;99189.59;4912628;28;20395;-69
2021/10/21 05:10:51;;;;;;;15.27;1.90;;;;;;;12.39;73.32;99207.06;4913847;28;20614;-69
2021/10/21 05:13:16;;;;;;;10.93;1.65;;;;;;;12.42;73.24;99227.91;4901267;28;20098;-68
2021/10/21 05:15:41;;;;;;;12.55;1.40;;;;;;;12.35;73.19;99240.25;4920280;28;20051;-67
2021/10/21 05:18:07;;;;;;;15.23;1.92;;;;;;;12.43;73.03;99254.03;4911928;28;20046;-67
2021/10/21 05:20:34;;;;;;;15.35;2.00;;;;;;;12.47;72.86;99260.03;4925650;28;20042;-67
2021/10/21 05:23:00;;;;;;;10.50;1.80;;;;;;;12.49;72.51;99279.19;4903629;28;20042;-68
2021/10/21 05:25:25;;;;;;;15.15;1.63;;;;;;;12.55;72.67;99290.38;4921484;28;20106;-68
2021/10/21 05:27:51;;;;;;;8.75;1.50;;;;;;;12.58;72.85;99295.53;4910268;28;20067;-67
2021/10/21 05:30:16;;;;;;;11.77;1.50;;;;;;;12.64;72.96;99298.91;4916681;28;20050;-68
2021/10/21 05:32:41;;;;;;;20.33;2.10;;;;;;;12.56;73.46;99318.22;4922292;28;20412;-69
2021/10/21 05:35:07;;;;;;;14.63;1.83;;;;;;;12.57;74.17;99326.91;4902760;28;20047;-68
2021/10/21 05:37:33;;;;;;;12.90;2.05;;;;;;;12.59;74.29;99340.84;4920212;28;20058;-69
2021/10/21 05:39:58;;;;;;;16.35;2.22;;;;;;;12.51;74.08;99355.78;4899732;28;20035;-68
2021/10/21 05:42:24;;;;;;;12.48;2.03;;;;;;;12.67;73.42;99372.94;4916307;28;20039;-68
2021/10/21 05:44:52;;;;;;;12.80;2.53;;;;;;;12.72;73.80;99384.16;4911321;28;20054;-67
2021/10/21 05:47:18;;;;;;;10.27;1.70;;;;;;;12.69;73.93;99402.50;4912108;28;20511;-67
2021/10/21 05:49:43;;;;;;;15.52;2.60;;;;;;;12.70;72.61;99412.09;4923293;28;20048;-71
2021/10/21 05:52:09;;;;;;;11.85;1.75;;;;;;;12.68;70.99;99442.66;4902909;28;20089;-68
2021/10/21 05:54:34;;;;;;;13.35;2.33;;;;;;;12.86;70.91;99450.16;4908188;28;20043;-67
2021/10/21 05:57:00;;;;;;;18.38;2.50;;;;;;;12.83;68.53;99452.81;4908454;28;20040;-67
2021/10/21 05:59:25;;;;;;;12.57;2.20;;;;;;;12.91;68.02;99460.53;4900646;28;20070;-69
2021/10/21 06:01:50;;;;;;;20.48;2.80;;;;;;;12.89;68.52;99484.09;4919553;28;20167;-68
2021/10/21 06:04:16;;;;;;;11.98;2.15;;;;;;;12.72;66.24;99496.59;4921838;28;20031;-70
2021/10/21 06:06:41;;;;;;;12.50;1.70;;;;;;;12.72;64.89;99498.34;4904233;28;20610;-68
2021/10/21 06:09:07;;;;;;;11.95;1.80;;;;;;;12.60;63.76;99502.91;4909951;28;20042;-69
2021/10/21 06:11:35;;;;;;;10.02;1.70;;;;;;;12.75;63.62;99500.91;4917441;28;20043;-69
2021/10/21 06:14:02;;;;;;;10.85;1.80;;;;;;;12.86;63.66;99514.69;4911891;28;20657;-68
2021/10/21 06:16:29;;;;;;;9.30;1.80;;;;;;;12.84;64.79;99521.69;4875976;28;20058;-71
2021/10/21 06:18:54;;;;;;;8.05;1.67;;;;;;;12.88;65.53;99528.56;4908762;28;20072;-68
2021/10/21 06:21:24;;;;;;;15.23;2.08;;;;;;;12.90;63.98;99532.03;4907272;28;20549;-69
2021/10/21 06:23:52;;;;;;;14.55;2.45;;;;;;;12.89;65.05;99562.56;4905720;28;20129;-69
2021/10/21 06:26:18;;;;;;;15.50;3.03;;;;;;;12.87;65.70;99587.88;4909590;28;20054;-69
2021/10/21 06:28:47;;;;;;;12.00;2.30;;;;;;;12.86;68.59;99614.94;4921462;28;20038;-69
2021/10/21 06:31:13;;;;;;;11.60;2.47;;;;;;;12.45;72.08;99602.47;4909234;28;20632;-69
2021/10/21 06:33:39;;;;;;;19.98;4.20;;;;;;;12.35;73.63;99610.47;4914167;28;20138;-69
2021/10/21 06:36:05;;;;;;;22.05;3.80;;;;;;;12.38;74.18;99613.06;4903806;28;20402;-69
2021/10/21 06:38:30;;;;;;;29.00;9.07;;;;;;;12.29;74.73;99634.06;4906934;28;20062;-69
2021/10/21 06:40:55;;;;;;;18.13;3.60;;;;;;;12.35;74.25;99642.69;4902651;28;20128;-70
2021/10/21 06:43:21;;;;;;;14.27;3.22;;;;;;;12.45;73.44;99646.91;4901347;28;20051;-69
2021/10/21 06:45:46;;;;;;;17.00;2.80;;;;;;;12.33;73.24;99657.53;4905027;28;20414;-70
2021/10/21 06:48:11;;;;;;;12.32;2.70;;;;;;;12.19;72.02;99665.56;4901318;28;20353;-68
2021/10/21 06:50:37;;;;;;;15.75;2.45;;;;;;;12.31;72.17;99682.84;4913058;28;20055;-71
2021/10/21 06:53:02;;;;;;;20.80;2.65;;;;;;;12.28;71.03;99697.66;4892618;28;20034;-69
2021/10/21 06:55:28;;;;;;;12.75;2.63;;;;;;;12.37;71.22;99701.06;4911395;28;20558;-69
2021/10/21 06:57:57;;;;;;;15.45;2.97;;;;;;;12.20;71.81;99706.47;4911616;28;20043;-69
2021/10/21 07:00:23;;;;;;;16.27;2.42;;;;;;;12.28;71.09;99721.19;4920150;28;20030;-70
2021/10/21 07:02:48;;;;;;;16.17;2.20;;;;;;;12.23;70.42;99741.28;4895981;28;20431;-71
2021/10/21 07:05:14;;;;;;;16.92;2.95;;;;;;;12.19;69.16;99741.34;4916064;28;21476;-68
2021/10/21 07:07:40;;;;;;;20.30;2.85;;;;;;;12.26;69.14;99762.19;4892198;28;20053;-69
2021/10/21 07:10:08;;;;;;;10.40;2.10;;;;;;;12.17;68.50;99768.34;4900160;28;20031;-69
2021/10/21 07:12:33;;;;;;;11.30;2.03;;;;;;;12.17;66.86;99776.19;4889893;28;20062;-68
2021/10/21 07:14:59;;;;;;;13.38;1.75;;;;;;;12.25;67.07;99803.13;4876014;28;20098;-68
2021/10/21 07:17:25;;;;;;;63.25;7.05;;;;;;;12.31;66.76;99797.81;4901189;28;20050;-68
2021/10/21 07:19:51;;;;;;;26.13;3.08;;;;;;;12.35;65.77;99809.97;4914343;28;20043;-70
2021/10/21 07:22:20;;;;;;;13.60;2.67;;;;;;;12.60;66.28;99813.16;4918047;28;20457;-69
2021/10/21 07:24:45;;;;;;;11.55;1.95;;;;;;;12.56;64.37;99840.25;4894207;28;20051;-69
2021/10/21 07:27:11;;;;;;;12.43;2.28;;;;;;;12.78;64.92;99838.25;4889528;28;20423;-71
2021/10/21 07:29:36;;;;;;;8.82;1.80;;;;;;;12.81;64.40;99836.44;4903331;28;20050;-70
2021/10/21 07:32:02;;;;;;;11.30;2.08;;;;;;;12.93;63.16;99827.56;4900521;28;20205;-69
2021/10/21 07:34:28;;;;;;;11.77;2.25;;;;;;;12.95;62.54;99836.28;4916575;28;20048;-70
2021/10/21 07:36:53;;;;;;;10.85;1.98;;;;;;;13.33;63.65;99852.38;4907237;28;20078;-70
2021/10/21 07:39:21;;;;;;;9.25;2.20;;;;;;;13.37;61.69;99856.66;4920098;28;20042;-69
2021/10/21 07:41:49;;;;;;;8.63;2.10;;;;;;;13.59;61.69;99853.75;4897936;28;20039;-70
2021/10/21 07:44:15;;;;;;;9.13;1.90;;;;;;;13.62;62.79;99872.88;4888846;28;20169;-70
2021/10/21 07:46:42;;;;;;;10.15;1.90;;;;;;;13.46;65.18;99879.25;4911038;28;20053;-69
2021/10/21 07:49:08;;;;;;;11.02;2.30;;;;;;;13.40;65.55;99885.44;4907683;28;20058;-69
2021/10/21 07:51:34;;;;;;;11.00;2.10;;;;;;;13.41;65.45;99899.38;4917871;28;20067;-68
2021/10/21 07:53:59;;;;;;;9.25;2.25;;;;;;;13.32;65.00;99915.22;4910123;28;20031;-69
2021/10/21 07:56:28;;;;;;;8.93;1.98;;;;;;;13.31;64.84;99929.19;4904880;28;20044;-68
2021/10/21 07:58:54;;;;;;;9.30;1.70;;;;;;;13.46;64.22;99907.19;4903430;28;20362;-63
2021/10/21 08:01:19;;;;;;;8.07;1.65;;;;;;;13.51;64.56;99931.53;4890586;28;20042;-68
2021/10/21 08:03:47;;;;;;;8.45;1.60;;;;;;;13.52;64.50;99935.91;4899576;28;20044;-67
2021/10/21 08:06:13;;;;;;;11.65;1.90;;;;;;;13.43;65.81;99964.81;4911965;28;20047;-68
2021/10/21 08:08:38;;;;;;;9.85;1.70;;;;;;;13.35;65.61;99970.16;4899540;28;20109;-69
2021/10/21 08:11:03;;;;;;;9.35;1.67;;;;;;;13.12;66.98;99975.63;4885715;28;20051;-68
2021/10/21 08:13:29;;;;;;;12.02;1.70;;;;;;;13.11;67.35;99984.38;4908573;28;20043;-68
2021/10/21 08:15:55;;;;;;;8.95;1.30;;;;;;;13.31;68.89;99981.53;4911360;28;20051;-68
2021/10/21 08:18:20;;;;;;;8.70;1.58;;;;;;;13.49;68.14;99980.44;4920571;28;20113;-67
2021/10/21 08:20:46;;;;;;;9.70;1.50;;;;;;;13.38;69.03;99981.44;4908912;28;20758;-67
2021/10/21 08:23:12;;;;;;;7.45;1.45;;;;;;;13.34;67.86;99978.88;4907045;28;20039;-68
2021/10/21 08:25:38;;;;;;;8.27;1.98;;;;;;;13.49;68.34;99986.53;4923527;28;20050;-69
2021/10/21 08:28:04;;;;;;;8.07;1.60;;;;;;;13.44;68.08;99996.22;4896059;28;20044;-68
2021/10/21 08:30:32;;;;;;;10.00;1.40;;;;;;;13.40;68.49;100000.63;4921822;28;20392;-68
2021/10/21 08:32:57;;;;;;;8.52;1.15;;;;;;;13.23;70.64;100001.72;4906527;28;20106;-68
2021/10/21 08:35:25;;;;;;;7.47;1.50;;;;;;;13.44;70.79;100001.44;4898401;28;20035;-69
2021/10/21 08:37:50;;;;;;;6.82;1.42;;;;;;;13.54;69.76;100008.28;4919490;28;20042;-69
2021/10/21 08:40:16;;;;;;;8.30;1.70;;;;;;;13.55;69.80;100017.00;4916720;28;20407;-69
2021/10/21 08:42:46;;;;;;;10.63;1.67;;;;;;;13.54;68.92;100013.53;4920153;28;20055;-69
2021/10/21 08:45:12;;;;;;;12.57;1.60;;;;;;;13.49;69.99;100019.72;4911248;28;20177;-70
2021/10/21 08:48:01;;;;;;;9.75;1.52;;;;;;;13.40;70.12;100029.44;4894571;28;20043;-69
2021/10/21 08:50:27;;;;;;;10.73;1.80;;;;;;;13.43;70.74;100027.63;4913216;28;20047;-69
2021/10/21 08:52:53;;;;;;;7.22;1.40;;;;;;;13.28;68.52;100026.94;4883630;28;20187;-69
2021/10/21 08:55:18;;;;;;;11.15;1.50;;;;;;;13.48;68.70;100028.47;4913702;28;20750;-68
2021/10/21 08:57:44;;;;;;;16.38;2.03;;;;;;;13.49;68.80;100027.56;4912682;28;20106;-69
2021/10/21 09:00:11;;;;;;;8.93;1.40;;;;;;;13.64;68.05;100053.59;4923979;28;20043;-69
2021/10/21 09:02:54;;;;;;;8.48;1.65;;;;;;;13.63;68.48;100062.31;4910774;28;20382;-69
2021/10/21 09:05:30;;;;;;;9.25;1.48;;;;;;;13.66;69.28;100072.78;4913756;28;20122;-68
2021/10/21 09:08:13;;;;;;;8.52;1.27;;;;;;;13.59;70.45;100074.59;4915292;28;20094;-70
2021/10/21 09:10:56;;;;;;;10.05;1.60;;;;;;;13.66;69.98;100083.25;4910833;28;20816;-69
2021/10/21 09:13:30;;;;;;;9.48;1.70;;;;;;;13.37;70.07;100088.78;4887364;28;20460;-69
2021/10/21 09:15:58;;;;;;;10.80;2.30;;;;;;;13.54;69.84;100091.25;4915077;28;20039;-69
2021/10/21 09:18:38;;;;;;;11.75;2.17;;;;;;;13.63;70.03;100099.00;4907222;28;20413;-70
2021/10/21 09:21:04;;;;;;;11.13;1.67;;;;;;;13.80;69.44;100097.91;4907848;28;20047;-69
2021/10/21 09:23:29;;;;;;;13.20;2.22;;;;;;;13.80;69.19;100097.91;4891926;28;20054;-70
2021/10/21 09:26:08;;;;;;;10.73;1.63;;;;;;;13.96;69.73;100111.72;4896539;28;20043;-68
2021/10/21 09:28:33;;;;;;;13.20;1.95;;;;;;;14.04;69.49;100116.81;4912792;28;20043;-70
2021/10/21 09:31:08;;;;;;;10.68;1.67;;;;;;;14.13;68.13;100121.97;4903791;28;20509;-70
2021/10/21 09:33:50;;;;;;;;;;;;;;;14.21;67.54;100130.56;4916266;28;20113;-70
2021/10/21 09:36:21;;;;;;;6.05;1.23;;;;;;;14.04;67.96;100135.16;4899052;28;19948;-70
2021/10/21 09:39:06;;;;;;;6.85;1.50;;;;;;;14.07;68.00;100137.78;4904832;28;20054;-69
2021/10/21 09:41:34;;;;;;;9.07;1.75;;;;;;;14.05;67.76;100131.66;4922386;28;20078;-69
2021/10/21 09:43:59;;;;;;;7.50;1.30;;;;;;;13.94;67.92;100138.81;4905657;28;20024;-69
2021/10/21 09:46:43;;;;;;;12.15;1.65;;;;;;;14.06;66.71;100155.25;4897609;28;20054;-69
2021/10/21 09:49:29;;;;;;;7.22;1.48;;;;;;;13.88;68.10;100171.19;4883204;28;20113;-68
2021/10/21 09:51:56;;;;;;;9.05;1.50;;;;;;;13.65;67.56;100181.91;4904425;28;20117;-69
2021/10/21 09:54:22;;;;;;;6.93;1.20;;;;;;;13.51;69.25;100170.69;4894455;28;20099;-69
2021/10/21 09:56:56;;;;;;;9.25;1.60;;;;;;;13.42;69.53;100178.63;4898815;28;20050;-68
2021/10/21 09:59:24;;;;;;;;;;;;;;;13.53;70.47;100176.81;4910173;28;20035;-68
2021/10/21 10:01:50;;;;;;;10.65;1.65;;;;;;;13.63;69.70;100178.44;4895660;28;19922;-69
2021/10/21 10:04:16;;;;;;;7.88;1.38;;;;;;;13.97;70.30;100171.06;4891633;28;20031;-68
2021/10/21 10:06:41;;;;;;;11.88;1.15;;;;;;;14.34;69.19;100174.09;4892009;28;20571;-69
2021/10/21 10:09:06;;;;;;;10.55;1.48;;;;;;;14.65;68.01;100189.47;4892373;28;20393;-69
2021/10/21 10:11:37;;;;;;;10.43;1.63;;;;;;;14.66;66.38;100189.44;4908624;28;20062;-68
2021/10/21 10:14:03;;;;;;;7.82;1.30;;;;;;;14.43;65.94;100184.53;4901346;28;20122;-68
2021/10/21 10:16:29;;;;;;;10.07;1.30;;;;;;;14.44;64.42;100175.78;4910238;28;20039;-70
2021/10/21 10:18:54;;;;;;;54.47;4.95;;;;;;;14.55;63.79;100193.97;4922537;28;20122;-68
2021/10/21 10:21:32;;;;;;;11.10;1.33;;;;;;;14.78;64.32;100201.50;4925694;28;20554;-68
2021/10/21 10:24:08;;;;;;;9.55;1.25;;;;;;;14.65;65.85;100200.81;4921873;28;20111;-68
2021/10/21 10:26:56;;;;;;;963.30;81.65;;;;;;;14.86;64.38;100210.16;4917272;28;20108;-68
2021/10/21 10:29:36;;;;;;;26.42;2.65;;;;;;;14.61;65.25;100248.97;4916658;28;20085;-69
2021/10/21 10:32:07;;;;;;;5.25;1.10;;;;;;;14.01;66.09;100274.13;4922352;28;20039;-68
2021/10/21 10:34:32;;;;;;;11.57;1.10;;;;;;;13.62;68.26;100285.84;4902501;28;20293;-69
2021/10/21 10:37:13;;;;;;;10.00;1.20;;;;;;;13.26;68.90;100300.06;4909451;28;20328;-68
2021/10/21 10:39:50;;;;;;;7.32;1.00;;;;;;;12.80;70.40;100316.00;4914391;28;20138;-70
2021/10/21 10:42:17;;;;;;;10.13;1.27;;;;;;;12.47;70.47;100324.84;4902839;28;20047;-69
2021/10/21 10:44:48;;;;;;;7.22;0.95;;;;;;;12.21;70.09;100339.72;4896177;28;20774;-69
2021/10/21 10:47:15;;;;;;;10.70;1.30;;;;;;;12.19;70.85;100347.56;4911283;28;20526;-68
2021/10/21 10:49:44;;;;;;;10.80;0.95;;;;;;;12.14;70.73;100353.66;4910263;28;20039;-68
2021/10/21 10:52:15;;;;;;;3.35;0.63;;;;;;;11.99;70.59;100364.13;4901577;28;20039;-72
2021/10/21 10:54:43;;;;;;;6.65;0.80;;;;;;;11.86;71.70;100373.72;4912819;28;20059;-71
2021/10/21 10:57:13;;;;;;;5.40;0.90;;;;;;;11.86;71.86;100378.94;4914776;28;20508;-69
2021/10/21 10:59:39;;;;;;;6.13;0.80;;;;;;;11.85;72.99;100392.88;4895197;28;20179;-69
2021/10/21 11:02:22;;;;;;;5.32;0.77;;;;;;;11.79;72.47;100405.91;4900677;28;20874;-69
2021/10/21 11:04:51;;;;;;;4.38;0.88;;;;;;;11.89;71.79;100402.47;4905510;28;20554;-68
2021/10/21 11:07:17;;;;;;;4.70;1.13;;;;;;;11.94;70.82;100411.16;4921272;28;20452;-68
2021/10/21 11:09:44;;;;;;;6.30;0.82;;;;;;;11.92;70.66;100418.13;4906246;28;20596;-68
2021/10/21 11:12:12;;;;;;;7.75;0.80;;;;;;;11.93;71.05;100419.88;4891419;28;20047;-68
2021/10/21 11:14:42;;;;;;;9.60;1.13;;;;;;;11.90;70.75;100422.47;4888241;28;21021;-68
2021/10/21 11:17:09;;;;;;;4.88;0.75;;;;;;;11.95;70.91;100425.09;4896628;28;20078;-69
2021/10/21 11:19:39;;;;;;;8.70;1.40;;;;;;;12.11;72.03;100421.59;4897832;28;20238;-69
2021/10/21 11:22:05;;;;;;;9.90;1.20;;;;;;;12.22;72.86;100439.91;4905888;28;20047;-68
2021/10/21 11:24:49;;;;;;;7.45;1.10;;;;;;;12.18;71.10;100436.44;4896788;28;20162;-69
2021/10/21 11:27:17;;;;;;;5.32;1.02;;;;;;;12.45;71.13;100445.97;4916303;28;20133;-71
2021/10/21 11:29:44;;;;;;;7.05;1.10;;;;;;;12.50;68.89;100447.72;4897382;28;20689;-68